sensor_id;sensor_type;location;lat;lon;timestamp;temperature;humidity
37594;DHT22;23441;50.856;6.076;2023-07-30T00:01:31;14.70;99.90
37594;DHT22;23441;50.856;6.076;2023-07-30T00:03:58;14.70;99.90
37594;DHT22;23441;50.856;6.076;2023-07-30T00:06:23;14.80;99.90
37594;DHT22;23441;50.856;6.076;2023-07-30T00:08:49;14.80;99.90
37594;DHT22;23441;50.856;6.076;2023-07-30T00:11:15;14.80;99.90
37594;DHT22;23441;50.856;6.076;2023-07-30T00:13:40;14.80;99.90
37594;DHT22;23441;50.856;6.076;2023-07-30T00:16:06;14.80;99.90
37594;DHT22;23441;50.856;6.076;2023-07-30T00:18:31;14.70;99.90
37594;DHT22;23441;50.856;6.076;2023-07-30T00:20:57;14.70;99.90
37594;DHT22;23441;50.856;6.076;2023-07-30T00:23:22;14.70;99.90
37594;DHT22;23441;50.856;6.076;2023-07-30T00:25:48;14.70;99.90
37594;DHT22;23441;50.856;6.076;2023-07-30T00:28:14;14.70;99.90
37594;DHT22;23441;50.856;6.076;2023-07-30T00:30:39;14.70;99.90
37594;DHT22;23441;50.856;6.076;2023-07-30T00:33:05;14.70;99.90
37594;DHT22;23441;50.856;6.076;2023-07-30T00:35:30;14.80;99.90
37594;DHT22;23441;50.856;6.076;2023-07-30T00:37:56;14.80;99.90
37594;DHT22;23441;50.856;6.076;2023-07-30T00:40:22;14.90;99.90
37594;DHT22;23441;50.856;6.076;2023-07-30T00:42:47;14.90;99.90
37594;DHT22;23441;50.856;6.076;2023-07-30T00:45:13;15.00;99.90
37594;DHT22;23441;50.856;6.076;2023-07-30T00:47:38;15.00;99.90
37594;DHT22;23441;50.856;6.076;2023-07-30T00:50:05;15.00;99.90
37594;DHT22;23441;50.856;6.076;2023-07-30T00:52:32;15.10;99.90
37594;DHT22;23441;50.856;6.076;2023-07-30T00:54:59;15.10;99.90
37594;DHT22;23441;50.856;6.076;2023-07-30T00:57:26;15.20;99.90
37594;DHT22;23441;50.856;6.076;2023-07-30T00:59:52;15.20;99.90
37594;DHT22;23441;50.856;6.076;2023-07-30T01:02:18;15.30;99.90
37594;DHT22;23441;50.856;6.076;2023-07-30T01:04:44;15.20;99.90
37594;DHT22;23441;50.856;6.076;2023-07-30T01:07:09;15.30;99.90
37594;DHT22;23441;50.856;6.076;2023-07-30T01:09:35;15.30;99.90
37594;DHT22;23441;50.856;6.076;2023-07-30T01:12:02;15.30;99.90
37594;DHT22;23441;50.856;6.076;2023-07-30T01:14:28;15.30;99.90
37594;DHT22;23441;50.856;6.076;2023-07-30T01:16:55;15.30;99.90
37594;DHT22;23441;50.856;6.076;2023-07-30T01:19:21;15.40;99.90
37594;DHT22;23441;50.856;6.076;2023-07-30T01:21:46;15.40;99.90
37594;DHT22;23441;50.856;6.076;2023-07-30T01:24:12;15.40;99.90
37594;DHT22;23441;50.856;6.076;2023-07-30T01:26:43;15.40;99.90
37594;DHT22;23441;50.856;6.076;2023-07-30T01:29:14;15.40;99.90
37594;DHT22;23441;50.856;6.076;2023-07-30T01:31:43;15.40;99.90
37594;DHT22;23441;50.856;6.076;2023-07-30T01:34:10;15.50;99.90
37594;DHT22;23441;50.856;6.076;2023-07-30T01:36:38;15.50;99.90
37594;DHT22;23441;50.856;6.076;2023-07-30T01:39:05;15.50;99.90
37594;DHT22;23441;50.856;6.076;2023-07-30T01:41:31;15.50;99.90
37594;DHT22;23441;50.856;6.076;2023-07-30T01:43:57;15.50;99.90
37594;DHT22;23441;50.856;6.076;2023-07-30T01:46:22;15.50;99.90
37594;DHT22;23441;50.856;6.076;2023-07-30T01:48:48;15.50;99.90
37594;DHT22;23441;50.856;6.076;2023-07-30T01:51:13;15.50;99.90
37594;DHT22;23441;50.856;6.076;2023-07-30T01:53:39;15.50;99.90
37594;DHT22;23441;50.856;6.076;2023-07-30T01:56:04;15.50;99.90
37594;DHT22;23441;50.856;6.076;2023-07-30T01:58:30;15.50;99.90
37594;DHT22;23441;50.856;6.076;2023-07-30T02:00:56;15.50;99.90
37594;DHT22;23441;50.856;6.076;2023-07-30T02:03:21;15.50;99.90
37594;DHT22;23441;50.856;6.076;2023-07-30T02:05:47;15.50;99.90
37594;DHT22;23441;50.856;6.076;2023-07-30T02:08:12;15.50;99.90
37594;DHT22;23441;50.856;6.076;2023-07-30T02:10:41;15.50;99.90
37594;DHT22;23441;50.856;6.076;2023-07-30T02:13:06;15.50;99.90
37594;DHT22;23441;50.856;6.076;2023-07-30T02:15:32;15.50;99.90
37594;DHT22;23441;50.856;6.076;2023-07-30T02:17:58;15.50;99.90
37594;DHT22;23441;50.856;6.076;2023-07-30T02:20:23;15.50;99.90
37594;DHT22;23441;50.856;6.076;2023-07-30T02:22:49;15.50;99.90
37594;DHT22;23441;50.856;6.076;2023-07-30T02:25:14;15.50;99.90
37594;DHT22;23441;50.856;6.076;2023-07-30T02:27:40;15.50;99.90
37594;DHT22;23441;50.856;6.076;2023-07-30T02:30:06;15.50;99.90
37594;DHT22;23441;50.856;6.076;2023-07-30T02:32:32;15.50;99.90
37594;DHT22;23441;50.856;6.076;2023-07-30T02:34:58;15.40;99.90
37594;DHT22;23441;50.856;6.076;2023-07-30T02:37:23;15.50;99.90
37594;DHT22;23441;50.856;6.076;2023-07-30T02:39:49;15.50;99.90
37594;DHT22;23441;50.856;6.076;2023-07-30T02:42:14;15.50;99.90
37594;DHT22;23441;50.856;6.076;2023-07-30T02:44:40;15.40;99.90
37594;DHT22;23441;50.856;6.076;2023-07-30T02:47:05;15.50;99.90
37594;DHT22;23441;50.856;6.076;2023-07-30T02:49:31;15.50;99.90
37594;DHT22;23441;50.856;6.076;2023-07-30T02:51:57;15.50;99.90
37594;DHT22;23441;50.856;6.076;2023-07-30T02:54:22;15.50;99.90
37594;DHT22;23441;50.856;6.076;2023-07-30T02:56:48;15.50;99.90
37594;DHT22;23441;50.856;6.076;2023-07-30T02:59:14;15.50;99.90
37594;DHT22;23441;50.856;6.076;2023-07-30T03:01:39;15.40;99.90
37594;DHT22;23441;50.856;6.076;2023-07-30T03:04:05;15.40;99.90
37594;DHT22;23441;50.856;6.076;2023-07-30T03:06:31;15.40;99.90
37594;DHT22;23441;50.856;6.076;2023-07-30T03:08:57;15.40;99.90
37594;DHT22;23441;50.856;6.076;2023-07-30T03:11:22;15.30;99.90
37594;DHT22;23441;50.856;6.076;2023-07-30T03:13:48;15.30;99.90
37594;DHT22;23441;50.856;6.076;2023-07-30T03:16:14;15.20;99.90
37594;DHT22;23441;50.856;6.076;2023-07-30T03:18:39;15.20;99.90
37594;DHT22;23441;50.856;6.076;2023-07-30T03:21:05;15.10;99.90
37594;DHT22;23441;50.856;6.076;2023-07-30T03:23:31;15.10;99.90
37594;DHT22;23441;50.856;6.076;2023-07-30T03:25:57;15.10;99.90
37594;DHT22;23441;50.856;6.076;2023-07-30T03:28:23;15.00;99.90
37594;DHT22;23441;50.856;6.076;2023-07-30T03:30:49;15.00;99.90
37594;DHT22;23441;50.856;6.076;2023-07-30T03:33:14;15.00;99.90
37594;DHT22;23441;50.856;6.076;2023-07-30T03:35:40;15.00;99.90
37594;DHT22;23441;50.856;6.076;2023-07-30T03:38:06;15.00;99.90
37594;DHT22;23441;50.856;6.076;2023-07-30T03:40:31;14.90;99.90
37594;DHT22;23441;50.856;6.076;2023-07-30T03:42:57;14.90;99.90
37594;DHT22;23441;50.856;6.076;2023-07-30T03:45:23;14.90;99.90
37594;DHT22;23441;50.856;6.076;2023-07-30T03:47:48;14.80;99.90
37594;DHT22;23441;50.856;6.076;2023-07-30T03:50:14;14.80;99.90
37594;DHT22;23441;50.856;6.076;2023-07-30T03:52:40;14.70;99.90
37594;DHT22;23441;50.856;6.076;2023-07-30T03:55:05;14.70;99.90
37594;DHT22;23441;50.856;6.076;2023-07-30T03:57:31;14.80;99.90
37594;DHT22;23441;50.856;6.076;2023-07-30T03:59:57;14.80;99.90
37594;DHT22;23441;50.856;6.076;2023-07-30T04:02:22;14.70;99.90
37594;DHT22;23441;50.856;6.076;2023-07-30T04:04:48;14.70;99.90
37594;DHT22;23441;50.856;6.076;2023-07-30T04:07:15;14.70;99.90
37594;DHT22;23441;50.856;6.076;2023-07-30T04:09:41;14.80;99.90
37594;DHT22;23441;50.856;6.076;2023-07-30T04:12:07;14.90;99.90
37594;DHT22;23441;50.856;6.076;2023-07-30T04:14:33;14.80;99.90
37594;DHT22;23441;50.856;6.076;2023-07-30T04:16:58;14.70;99.90
37594;DHT22;23441;50.856;6.076;2023-07-30T04:19:24;14.50;99.90
37594;DHT22;23441;50.856;6.076;2023-07-30T04:21:49;14.50;99.90
37594;DHT22;23441;50.856;6.076;2023-07-30T04:24:15;14.30;99.90
37594;DHT22;23441;50.856;6.076;2023-07-30T04:26:40;14.20;99.90
37594;DHT22;23441;50.856;6.076;2023-07-30T04:29:06;14.20;99.90
37594;DHT22;23441;50.856;6.076;2023-07-30T04:31:32;14.10;99.90
37594;DHT22;23441;50.856;6.076;2023-07-30T04:33:58;14.10;99.90
37594;DHT22;23441;50.856;6.076;2023-07-30T04:36:24;14.00;99.90
37594;DHT22;23441;50.856;6.076;2023-07-30T04:38:49;14.00;99.90
37594;DHT22;23441;50.856;6.076;2023-07-30T04:41:15;14.00;99.90
37594;DHT22;23441;50.856;6.076;2023-07-30T04:43:42;14.00;99.90
37594;DHT22;23441;50.856;6.076;2023-07-30T04:46:08;14.00;99.90
37594;DHT22;23441;50.856;6.076;2023-07-30T04:48:33;14.00;99.90
37594;DHT22;23441;50.856;6.076;2023-07-30T04:50:59;14.10;99.90
37594;DHT22;23441;50.856;6.076;2023-07-30T04:53:25;14.10;99.90
37594;DHT22;23441;50.856;6.076;2023-07-30T04:56:00;14.20;99.90
37594;DHT22;23441;50.856;6.076;2023-07-30T04:58:25;14.20;99.90
37594;DHT22;23441;50.856;6.076;2023-07-30T05:00:51;14.30;99.90
37594;DHT22;23441;50.856;6.076;2023-07-30T05:03:16;14.30;99.90
37594;DHT22;23441;50.856;6.076;2023-07-30T05:05:42;14.20;99.90
37594;DHT22;23441;50.856;6.076;2023-07-30T05:08:08;14.20;99.90
37594;DHT22;23441;50.856;6.076;2023-07-30T05:10:33;14.20;99.90
37594;DHT22;23441;50.856;6.076;2023-07-30T05:12:59;14.30;99.90
37594;DHT22;23441;50.856;6.076;2023-07-30T05:15:25;14.20;99.90
37594;DHT22;23441;50.856;6.076;2023-07-30T05:17:51;14.20;99.90
37594;DHT22;23441;50.856;6.076;2023-07-30T05:20:16;14.20;99.90
37594;DHT22;23441;50.856;6.076;2023-07-30T05:22:42;14.30;99.90
37594;DHT22;23441;50.856;6.076;2023-07-30T05:25:08;14.40;99.90
37594;DHT22;23441;50.856;6.076;2023-07-30T05:27:34;14.40;99.90
37594;DHT22;23441;50.856;6.076;2023-07-30T05:30:00;14.40;99.90
37594;DHT22;23441;50.856;6.076;2023-07-30T05:32:26;14.40;99.90
37594;DHT22;23441;50.856;6.076;2023-07-30T05:34:52;14.40;99.90
37594;DHT22;23441;50.856;6.076;2023-07-30T05:37:17;14.40;99.90
37594;DHT22;23441;50.856;6.076;2023-07-30T05:39:43;14.40;99.90
37594;DHT22;23441;50.856;6.076;2023-07-30T05:42:09;14.50;99.90
37594;DHT22;23441;50.856;6.076;2023-07-30T05:44:34;14.50;99.90
37594;DHT22;23441;50.856;6.076;2023-07-30T05:47:00;14.50;99.90
37594;DHT22;23441;50.856;6.076;2023-07-30T05:49:25;14.60;99.90
37594;DHT22;23441;50.856;6.076;2023-07-30T05:51:51;14.60;99.90
37594;DHT22;23441;50.856;6.076;2023-07-30T05:54:17;14.60;99.90
37594;DHT22;23441;50.856;6.076;2023-07-30T05:56:43;14.60;99.90
37594;DHT22;23441;50.856;6.076;2023-07-30T05:59:09;14.60;99.90
37594;DHT22;23441;50.856;6.076;2023-07-30T06:01:34;14.70;99.90
37594;DHT22;23441;50.856;6.076;2023-07-30T06:04:00;14.70;99.90
37594;DHT22;23441;50.856;6.076;2023-07-30T06:06:26;14.80;99.90
37594;DHT22;23441;50.856;6.076;2023-07-30T06:08:55;14.80;99.90
37594;DHT22;23441;50.856;6.076;2023-07-30T06:11:21;14.90;99.90
37594;DHT22;23441;50.856;6.076;2023-07-30T06:13:48;14.80;99.90
37594;DHT22;23441;50.856;6.076;2023-07-30T06:16:14;14.90;99.90
37594;DHT22;23441;50.856;6.076;2023-07-30T06:18:40;15.00;99.90
37594;DHT22;23441;50.856;6.076;2023-07-30T06:21:06;15.00;99.90
37594;DHT22;23441;50.856;6.076;2023-07-30T06:23:31;15.00;99.90
37594;DHT22;23441;50.856;6.076;2023-07-30T06:25:57;15.10;99.90
37594;DHT22;23441;50.856;6.076;2023-07-30T06:28:22;15.10;99.90
37594;DHT22;23441;50.856;6.076;2023-07-30T06:30:49;15.20;99.90
37594;DHT22;23441;50.856;6.076;2023-07-30T06:33:14;15.20;99.90
37594;DHT22;23441;50.856;6.076;2023-07-30T06:35:40;15.20;99.90
37594;DHT22;23441;50.856;6.076;2023-07-30T06:38:08;15.20;99.90
37594;DHT22;23441;50.856;6.076;2023-07-30T06:40:34;15.30;99.90
37594;DHT22;23441;50.856;6.076;2023-07-30T06:43:00;15.40;99.90
37594;DHT22;23441;50.856;6.076;2023-07-30T06:45:26;15.50;99.90
37594;DHT22;23441;50.856;6.076;2023-07-30T06:47:51;15.50;99.90
37594;DHT22;23441;50.856;6.076;2023-07-30T06:50:17;15.60;99.90
37594;DHT22;23441;50.856;6.076;2023-07-30T06:52:42;15.60;99.90
37594;DHT22;23441;50.856;6.076;2023-07-30T06:55:08;15.70;99.90
37594;DHT22;23441;50.856;6.076;2023-07-30T06:57:34;15.70;99.90
37594;DHT22;23441;50.856;6.076;2023-07-30T06:59:59;15.70;99.90
37594;DHT22;23441;50.856;6.076;2023-07-30T07:02:26;15.70;99.90
37594;DHT22;23441;50.856;6.076;2023-07-30T07:04:53;15.70;99.90
37594;DHT22;23441;50.856;6.076;2023-07-30T07:07:19;15.70;99.90
37594;DHT22;23441;50.856;6.076;2023-07-30T07:09:45;15.70;99.90
37594;DHT22;23441;50.856;6.076;2023-07-30T07:12:11;15.80;99.90
37594;DHT22;23441;50.856;6.076;2023-07-30T07:14:37;15.80;99.90
37594;DHT22;23441;50.856;6.076;2023-07-30T07:17:03;15.80;99.90
37594;DHT22;23441;50.856;6.076;2023-07-30T07:19:28;15.80;99.90
37594;DHT22;23441;50.856;6.076;2023-07-30T07:21:54;15.80;99.90
37594;DHT22;23441;50.856;6.076;2023-07-30T07:24:19;15.90;99.90
37594;DHT22;23441;50.856;6.076;2023-07-30T07:26:45;15.90;99.90
37594;DHT22;23441;50.856;6.076;2023-07-30T07:29:11;16.00;99.90
37594;DHT22;23441;50.856;6.076;2023-07-30T07:31:36;16.00;99.90
37594;DHT22;23441;50.856;6.076;2023-07-30T07:34:02;16.10;99.90
37594;DHT22;23441;50.856;6.076;2023-07-30T07:36:28;16.10;99.90
37594;DHT22;23441;50.856;6.076;2023-07-30T07:38:53;16.20;99.90
37594;DHT22;23441;50.856;6.076;2023-07-30T07:41:19;16.30;99.90
37594;DHT22;23441;50.856;6.076;2023-07-30T07:43:46;16.40;99.90
37594;DHT22;23441;50.856;6.076;2023-07-30T07:46:12;16.30;99.90
37594;DHT22;23441;50.856;6.076;2023-07-30T07:48:42;16.40;99.90
37594;DHT22;23441;50.856;6.076;2023-07-30T07:51:09;16.20;99.90
37594;DHT22;23441;50.856;6.076;2023-07-30T07:53:36;16.10;99.90
37594;DHT22;23441;50.856;6.076;2023-07-30T07:56:01;16.10;99.90
37594;DHT22;23441;50.856;6.076;2023-07-30T07:58:27;16.00;99.90
37594;DHT22;23441;50.856;6.076;2023-07-30T08:00:56;16.00;99.90
37594;DHT22;23441;50.856;6.076;2023-07-30T08:03:22;16.00;99.90
37594;DHT22;23441;50.856;6.076;2023-07-30T08:05:48;16.10;99.90
37594;DHT22;23441;50.856;6.076;2023-07-30T08:08:14;16.20;99.90
37594;DHT22;23441;50.856;6.076;2023-07-30T08:10:40;16.40;99.90
37594;DHT22;23441;50.856;6.076;2023-07-30T08:13:12;16.50;99.90
37594;DHT22;23441;50.856;6.076;2023-07-30T08:15:38;16.70;99.90
37594;DHT22;23441;50.856;6.076;2023-07-30T08:18:04;16.90;99.90
37594;DHT22;23441;50.856;6.076;2023-07-30T08:20:29;17.20;99.90
37594;DHT22;23441;50.856;6.076;2023-07-30T08:22:55;17.40;99.90
37594;DHT22;23441;50.856;6.076;2023-07-30T08:25:21;17.40;99.90
37594;DHT22;23441;50.856;6.076;2023-07-30T08:27:46;17.50;99.90
37594;DHT22;23441;50.856;6.076;2023-07-30T08:30:12;17.50;99.90
37594;DHT22;23441;50.856;6.076;2023-07-30T08:32:38;17.50;99.90
37594;DHT22;23441;50.856;6.076;2023-07-30T08:35:04;17.50;99.90
37594;DHT22;23441;50.856;6.076;2023-07-30T08:37:30;17.60;99.90
37594;DHT22;23441;50.856;6.076;2023-07-30T08:39:56;17.40;99.90
37594;DHT22;23441;50.856;6.076;2023-07-30T08:42:22;17.20;99.90
37594;DHT22;23441;50.856;6.076;2023-07-30T08:44:48;17.10;99.90
37594;DHT22;23441;50.856;6.076;2023-07-30T08:47:13;17.20;99.90
37594;DHT22;23441;50.856;6.076;2023-07-30T08:49:39;17.20;99.90
37594;DHT22;23441;50.856;6.076;2023-07-30T08:52:08;17.20;99.90
37594;DHT22;23441;50.856;6.076;2023-07-30T08:54:36;17.30;99.90
37594;DHT22;23441;50.856;6.076;2023-07-30T08:57:03;17.60;99.90
37594;DHT22;23441;50.856;6.076;2023-07-30T08:59:37;18.00;99.90
37594;DHT22;23441;50.856;6.076;2023-07-30T09:02:04;18.20;99.90
37594;DHT22;23441;50.856;6.076;2023-07-30T09:04:35;19.00;99.90
37594;DHT22;23441;50.856;6.076;2023-07-30T09:07:01;19.30;99.90
37594;DHT22;23441;50.856;6.076;2023-07-30T09:09:27;20.30;99.90
37594;DHT22;23441;50.856;6.076;2023-07-30T09:11:53;20.80;99.90
37594;DHT22;23441;50.856;6.076;2023-07-30T09:14:21;20.70;99.90
37594;DHT22;23441;50.856;6.076;2023-07-30T09:16:47;20.00;99.90
37594;DHT22;23441;50.856;6.076;2023-07-30T09:19:19;20.30;99.90
37594;DHT22;23441;50.856;6.076;2023-07-30T09:21:44;20.70;99.90
37594;DHT22;23441;50.856;6.076;2023-07-30T09:24:10;20.90;99.90
37594;DHT22;23441;50.856;6.076;2023-07-30T09:26:43;21.10;99.90
37594;DHT22;23441;50.856;6.076;2023-07-30T09:29:11;21.10;99.90
37594;DHT22;23441;50.856;6.076;2023-07-30T09:31:55;21.50;99.90
37594;DHT22;23441;50.856;6.076;2023-07-30T09:34:22;21.40;99.90
37594;DHT22;23441;50.856;6.076;2023-07-30T09:36:50;21.20;99.90
37594;DHT22;23441;50.856;6.076;2023-07-30T09:39:25;20.80;99.90
37594;DHT22;23441;50.856;6.076;2023-07-30T09:41:58;20.30;99.90
37594;DHT22;23441;50.856;6.076;2023-07-30T09:44:25;19.80;99.90
37594;DHT22;23441;50.856;6.076;2023-07-30T09:46:51;19.50;99.90
37594;DHT22;23441;50.856;6.076;2023-07-30T09:49:17;19.40;99.90
37594;DHT22;23441;50.856;6.076;2023-07-30T09:51:43;19.20;99.90
37594;DHT22;23441;50.856;6.076;2023-07-30T09:54:11;19.10;99.90
37594;DHT22;23441;50.856;6.076;2023-07-30T09:56:39;18.90;99.90
37594;DHT22;23441;50.856;6.076;2023-07-30T09:59:06;18.70;99.90
37594;DHT22;23441;50.856;6.076;2023-07-30T10:01:37;18.60;99.90
37594;DHT22;23441;50.856;6.076;2023-07-30T10:04:07;18.80;99.90
37594;DHT22;23441;50.856;6.076;2023-07-30T10:06:38;19.10;99.90
37594;DHT22;23441;50.856;6.076;2023-07-30T10:09:05;19.50;99.90
37594;DHT22;23441;50.856;6.076;2023-07-30T10:11:32;19.80;99.90
37594;DHT22;23441;50.856;6.076;2023-07-30T10:13:59;19.70;99.90
37594;DHT22;23441;50.856;6.076;2023-07-30T10:16:28;19.30;99.90
37594;DHT22;23441;50.856;6.076;2023-07-30T10:18:58;19.00;99.90
37594;DHT22;23441;50.856;6.076;2023-07-30T10:21:26;19.00;99.90
37594;DHT22;23441;50.856;6.076;2023-07-30T10:24:03;19.10;99.90
37594;DHT22;23441;50.856;6.076;2023-07-30T10:26:33;19.30;99.90
37594;DHT22;23441;50.856;6.076;2023-07-30T10:29:19;19.30;99.90
37594;DHT22;23441;50.856;6.076;2023-07-30T10:31:56;19.30;99.90
37594;DHT22;23441;50.856;6.076;2023-07-30T10:34:26;19.30;99.90
37594;DHT22;23441;50.856;6.076;2023-07-30T10:36:52;19.00;99.90
37594;DHT22;23441;50.856;6.076;2023-07-30T10:39:25;18.90;99.90
37594;DHT22;23441;50.856;6.076;2023-07-30T10:41:54;19.10;99.90
37594;DHT22;23441;50.856;6.076;2023-07-30T10:44:31;19.10;99.90
37594;DHT22;23441;50.856;6.076;2023-07-30T10:46:59;19.20;99.90
37594;DHT22;23441;50.856;6.076;2023-07-30T10:49:25;19.40;99.90
37594;DHT22;23441;50.856;6.076;2023-07-30T10:51:52;19.60;99.90
37594;DHT22;23441;50.856;6.076;2023-07-30T10:54:18;19.80;99.90
37594;DHT22;23441;50.856;6.076;2023-07-30T10:56:44;19.70;99.90
37594;DHT22;23441;50.856;6.076;2023-07-30T10:59:11;19.60;99.90
37594;DHT22;23441;50.856;6.076;2023-07-30T11:01:38;19.40;99.90
37594;DHT22;23441;50.856;6.076;2023-07-30T11:04:19;19.20;99.90
37594;DHT22;23441;50.856;6.076;2023-07-30T11:06:49;19.00;99.90
37594;DHT22;23441;50.856;6.076;2023-07-30T11:09:23;18.80;99.90
37594;DHT22;23441;50.856;6.076;2023-07-30T11:11:50;18.80;99.90
37594;DHT22;23441;50.856;6.076;2023-07-30T11:14:18;19.10;99.90
37594;DHT22;23441;50.856;6.076;2023-07-30T11:16:55;19.00;99.90
37594;DHT22;23441;50.856;6.076;2023-07-30T11:19:21;19.00;99.90
37594;DHT22;23441;50.856;6.076;2023-07-30T11:21:51;19.00;99.90
37594;DHT22;23441;50.856;6.076;2023-07-30T11:24:16;18.90;99.90
37594;DHT22;23441;50.856;6.076;2023-07-30T11:26:43;18.80;99.90
37594;DHT22;23441;50.856;6.076;2023-07-30T11:29:16;18.50;99.90
37594;DHT22;23441;50.856;6.076;2023-07-30T11:31:46;18.40;99.90
37594;DHT22;23441;50.856;6.076;2023-07-30T11:34:15;18.60;99.90
37594;DHT22;23441;50.856;6.076;2023-07-30T11:36:42;18.70;99.90
37594;DHT22;23441;50.856;6.076;2023-07-30T11:39:08;18.80;99.90
37594;DHT22;23441;50.856;6.076;2023-07-30T11:41:34;19.00;99.90
37594;DHT22;23441;50.856;6.076;2023-07-30T11:44:00;19.10;99.90
37594;DHT22;23441;50.856;6.076;2023-07-30T11:46:26;19.30;99.90
37594;DHT22;23441;50.856;6.076;2023-07-30T11:48:53;19.30;99.90
37594;DHT22;23441;50.856;6.076;2023-07-30T11:51:26;19.40;99.90
37594;DHT22;23441;50.856;6.076;2023-07-30T11:53:54;19.30;99.90
37594;DHT22;23441;50.856;6.076;2023-07-30T11:56:28;19.10;99.90
37594;DHT22;23441;50.856;6.076;2023-07-30T11:59:14;18.70;99.90
37594;DHT22;23441;50.856;6.076;2023-07-30T12:01:42;18.50;99.90
37594;DHT22;23441;50.856;6.076;2023-07-30T12:04:08;18.60;99.90
37594;DHT22;23441;50.856;6.076;2023-07-30T12:06:45;18.80;99.90
37594;DHT22;23441;50.856;6.076;2023-07-30T12:11:48;19.10;99.90
37594;DHT22;23441;50.856;6.076;2023-07-30T12:14:15;19.10;99.90
37594;DHT22;23441;50.856;6.076;2023-07-30T12:16:41;19.00;99.90
37594;DHT22;23441;50.856;6.076;2023-07-30T12:19:06;18.80;99.90
37594;DHT22;23441;50.856;6.076;2023-07-30T12:21:32;18.70;99.90
37594;DHT22;23441;50.856;6.076;2023-07-30T12:23:58;19.20;99.90
37594;DHT22;23441;50.856;6.076;2023-07-30T12:26:24;19.60;99.90
37594;DHT22;23441;50.856;6.076;2023-07-30T12:28:49;20.00;99.90
37594;DHT22;23441;50.856;6.076;2023-07-30T12:31:15;20.40;99.90
37594;DHT22;23441;50.856;6.076;2023-07-30T12:33:40;21.10;99.90
37594;DHT22;23441;50.856;6.076;2023-07-30T12:36:06;20.90;99.90
37594;DHT22;23441;50.856;6.076;2023-07-30T12:38:32;20.80;99.90
37594;DHT22;23441;50.856;6.076;2023-07-30T12:40:57;20.30;99.90
37594;DHT22;23441;50.856;6.076;2023-07-30T12:43:23;20.30;99.90
37594;DHT22;23441;50.856;6.076;2023-07-30T12:45:49;20.10;99.90
37594;DHT22;23441;50.856;6.076;2023-07-30T12:48:15;20.40;99.90
37594;DHT22;23441;50.856;6.076;2023-07-30T12:50:40;21.00;99.90
37594;DHT22;23441;50.856;6.076;2023-07-30T12:53:06;21.50;99.90
37594;DHT22;23441;50.856;6.076;2023-07-30T12:55:32;21.60;99.90
37594;DHT22;23441;50.856;6.076;2023-07-30T12:57:57;21.60;99.90
37594;DHT22;23441;50.856;6.076;2023-07-30T13:00:25;21.40;99.90
37594;DHT22;23441;50.856;6.076;2023-07-30T13:02:51;20.90;99.90
37594;DHT22;23441;50.856;6.076;2023-07-30T13:05:20;20.70;99.90
37594;DHT22;23441;50.856;6.076;2023-07-30T13:07:46;20.80;99.90
37594;DHT22;23441;50.856;6.076;2023-07-30T13:10:12;21.10;99.90
37594;DHT22;23441;50.856;6.076;2023-07-30T13:12:38;21.30;99.90
37594;DHT22;23441;50.856;6.076;2023-07-30T13:15:04;21.80;99.90
37594;DHT22;23441;50.856;6.076;2023-07-30T13:17:30;21.90;99.70
37594;DHT22;23441;50.856;6.076;2023-07-30T13:19:57;22.20;99.90
37594;DHT22;23441;50.856;6.076;2023-07-30T13:22:22;22.10;98.80
37594;DHT22;23441;50.856;6.076;2023-07-30T13:24:48;21.80;99.70
37594;DHT22;23441;50.856;6.076;2023-07-30T13:27:14;21.40;99.90
37594;DHT22;23441;50.856;6.076;2023-07-30T13:29:40;21.30;99.90
37594;DHT22;23441;50.856;6.076;2023-07-30T13:32:06;21.10;99.90
37594;DHT22;23441;50.856;6.076;2023-07-30T13:34:32;21.00;99.90
37594;DHT22;23441;50.856;6.076;2023-07-30T13:36:57;21.80;99.90
37594;DHT22;23441;50.856;6.076;2023-07-30T13:39:23;22.20;99.80
37594;DHT22;23441;50.856;6.076;2023-07-30T13:41:49;22.50;99.90
37594;DHT22;23441;50.856;6.076;2023-07-30T13:44:15;22.60;98.40
37594;DHT22;23441;50.856;6.076;2023-07-30T13:46:40;22.30;98.60
37594;DHT22;23441;50.856;6.076;2023-07-30T13:49:06;22.00;98.30
37594;DHT22;23441;50.856;6.076;2023-07-30T13:51:33;21.70;98.80
37594;DHT22;23441;50.856;6.076;2023-07-30T13:53:59;21.50;99.50
37594;DHT22;23441;50.856;6.076;2023-07-30T13:56:26;21.50;98.90
37594;DHT22;23441;50.856;6.076;2023-07-30T13:58:52;21.80;98.80
37594;DHT22;23441;50.856;6.076;2023-07-30T14:01:18;21.80;98.70
37594;DHT22;23441;50.856;6.076;2023-07-30T14:03:43;21.80;99.00
37594;DHT22;23441;50.856;6.076;2023-07-30T14:06:10;22.00;98.60
37594;DHT22;23441;50.856;6.076;2023-07-30T14:08:36;22.10;97.40
37594;DHT22;23441;50.856;6.076;2023-07-30T14:11:01;21.90;97.70
37594;DHT22;23441;50.856;6.076;2023-07-30T14:13:27;22.00;97.70
37594;DHT22;23441;50.856;6.076;2023-07-30T14:15:53;22.10;97.30
37594;DHT22;23441;50.856;6.076;2023-07-30T14:18:19;21.90;97.60
37594;DHT22;23441;50.856;6.076;2023-07-30T14:20:44;21.90;98.00
37594;DHT22;23441;50.856;6.076;2023-07-30T14:23:10;21.80;98.50
37594;DHT22;23441;50.856;6.076;2023-07-30T14:25:37;21.60;99.30
37594;DHT22;23441;50.856;6.076;2023-07-30T14:28:03;21.30;99.90
37594;DHT22;23441;50.856;6.076;2023-07-30T14:30:29;21.00;99.90
37594;DHT22;23441;50.856;6.076;2023-07-30T14:32:55;20.90;99.90
37594;DHT22;23441;50.856;6.076;2023-07-30T14:35:20;21.10;99.90
37594;DHT22;23441;50.856;6.076;2023-07-30T14:37:46;21.50;99.90
37594;DHT22;23441;50.856;6.076;2023-07-30T14:40:12;22.00;99.40
37594;DHT22;23441;50.856;6.076;2023-07-30T14:42:38;22.40;99.90
37594;DHT22;23441;50.856;6.076;2023-07-30T14:45:06;22.70;97.90
37594;DHT22;23441;50.856;6.076;2023-07-30T14:47:32;22.80;98.30
37594;DHT22;23441;50.856;6.076;2023-07-30T14:49:58;22.20;98.10
37594;DHT22;23441;50.856;6.076;2023-07-30T14:52:24;21.60;98.80
37594;DHT22;23441;50.856;6.076;2023-07-30T14:54:50;21.30;99.90
37594;DHT22;23441;50.856;6.076;2023-07-30T14:57:16;21.20;99.90
37594;DHT22;23441;50.856;6.076;2023-07-30T14:59:42;21.60;99.90
37594;DHT22;23441;50.856;6.076;2023-07-30T15:02:08;22.00;99.90
37594;DHT22;23441;50.856;6.076;2023-07-30T15:04:33;22.20;99.90
37594;DHT22;23441;50.856;6.076;2023-07-30T15:06:59;21.90;99.90
37594;DHT22;23441;50.856;6.076;2023-07-30T15:09:25;22.20;99.90
37594;DHT22;23441;50.856;6.076;2023-07-30T15:11:50;22.30;99.90
37594;DHT22;23441;50.856;6.076;2023-07-30T15:14:16;22.50;99.90
37594;DHT22;23441;50.856;6.076;2023-07-30T15:16:42;22.90;97.90
37594;DHT22;23441;50.856;6.076;2023-07-30T15:19:07;22.80;97.60
37594;DHT22;23441;50.856;6.076;2023-07-30T15:21:33;22.90;97.40
37594;DHT22;23441;50.856;6.076;2023-07-30T15:24:00;22.70;97.20
37594;DHT22;23441;50.856;6.076;2023-07-30T15:26:26;22.70;97.40
37594;DHT22;23441;50.856;6.076;2023-07-30T15:28:52;23.00;96.10